sensor_id;sensor_type;location;lat;lon;timestamp;P1;durP1;ratioP1;P2;durP2;ratioP2
59089;SDS011;44878;50.102;18.982;2023-04-26T00:00:24;13.10;;;6.80;;
59089;SDS011;44878;50.102;18.982;2023-04-26T00:03:10;14.60;;;7.80;;
59089;SDS011;44878;50.102;18.982;2023-04-26T00:05:37;12.20;;;7.20;;
59089;SDS011;44878;50.102;18.982;2023-04-26T00:08:03;11.60;;;6.83;;
59089;SDS011;44878;50.102;18.982;2023-04-26T00:10:29;12.90;;;6.80;;
59089;SDS011;44878;50.102;18.982;2023-04-26T00:12:55;12.73;;;7.60;;
59089;SDS011;44878;50.102;18.982;2023-04-26T00:15:21;11.67;;;7.33;;
59089;SDS011;44878;50.102;18.982;2023-04-26T00:17:47;14.47;;;8.47;;
59089;SDS011;44878;50.102;18.982;2023-04-26T00:20:14;14.40;;;7.80;;
59089;SDS011;44878;50.102;18.982;2023-04-26T00:22:40;14.97;;;7.93;;
59089;SDS011;44878;50.102;18.982;2023-04-26T00:25:06;14.83;;;7.87;;
59089;SDS011;44878;50.102;18.982;2023-04-26T00:27:32;12.93;;;7.57;;
59089;SDS011;44878;50.102;18.982;2023-04-26T00:29:58;14.07;;;7.93;;
59089;SDS011;44878;50.102;18.982;2023-04-26T00:32:24;14.93;;;7.47;;
59089;SDS011;44878;50.102;18.982;2023-04-26T00:34:49;14.07;;;8.33;;
59089;SDS011;44878;50.102;18.982;2023-04-26T00:37:15;14.40;;;8.23;;
59089;SDS011;44878;50.102;18.982;2023-04-26T00:39:41;13.33;;;8.00;;
59089;SDS011;44878;50.102;18.982;2023-04-26T00:42:07;15.10;;;8.77;;
59089;SDS011;44878;50.102;18.982;2023-04-26T00:44:33;12.57;;;7.80;;
59089;SDS011;44878;50.102;18.982;2023-04-26T00:46:59;14.60;;;8.43;;
59089;SDS011;44878;50.102;18.982;2023-04-26T00:49:24;15.37;;;8.87;;
59089;SDS011;44878;50.102;18.982;2023-04-26T00:51:51;13.67;;;8.03;;
59089;SDS011;44878;50.102;18.982;2023-04-26T00:54:16;14.70;;;8.87;;
59089;SDS011;44878;50.102;18.982;2023-04-26T00:59:10;17.23;;;9.07;;
59089;SDS011;44878;50.102;18.982;2023-04-26T01:01:36;17.33;;;9.20;;
59089;SDS011;44878;50.102;18.982;2023-04-26T01:04:03;15.17;;;9.10;;
59089;SDS011;44878;50.102;18.982;2023-04-26T01:06:33;12.53;;;7.97;;
59089;SDS011;44878;50.102;18.982;2023-04-26T01:09:02;13.27;;;8.50;;
59089;SDS011;44878;50.102;18.982;2023-04-26T01:11:30;20.73;;;9.63;;
59089;SDS011;44878;50.102;18.982;2023-04-26T01:13:56;18.87;;;9.60;;
59089;SDS011;44878;50.102;18.982;2023-04-26T01:16:22;16.50;;;8.80;;
59089;SDS011;44878;50.102;18.982;2023-04-26T01:18:52;15.67;;;9.43;;
59089;SDS011;44878;50.102;18.982;2023-04-26T01:21:21;16.10;;;9.80;;
59089;SDS011;44878;50.102;18.982;2023-04-26T01:23:47;15.07;;;9.20;;
59089;SDS011;44878;50.102;18.982;2023-04-26T01:26:14;17.55;;;9.15;;
59089;SDS011;44878;50.102;18.982;2023-04-26T01:28:40;13.57;;;7.63;;
59089;SDS011;44878;50.102;18.982;2023-04-26T01:31:06;12.10;;;6.90;;
59089;SDS011;44878;50.102;18.982;2023-04-26T01:33:32;14.67;;;7.77;;
59089;SDS011;44878;50.102;18.982;2023-04-26T01:35:58;15.23;;;7.47;;
59089;SDS011;44878;50.102;18.982;2023-04-26T01:38:24;15.43;;;6.70;;
59089;SDS011;44878;50.102;18.982;2023-04-26T01:40:50;15.70;;;7.57;;
59089;SDS011;44878;50.102;18.982;2023-04-26T01:43:16;11.43;;;6.77;;
59089;SDS011;44878;50.102;18.982;2023-04-26T01:45:47;12.13;;;6.83;;
59089;SDS011;44878;50.102;18.982;2023-04-26T01:48:13;15.03;;;7.63;;
59089;SDS011;44878;50.102;18.982;2023-04-26T01:50:39;13.90;;;7.20;;
59089;SDS011;44878;50.102;18.982;2023-04-26T01:53:04;14.00;;;7.13;;
59089;SDS011;44878;50.102;18.982;2023-04-26T01:55:31;13.10;;;6.97;;
59089;SDS011;44878;50.102;18.982;2023-04-26T01:57:58;13.25;;;6.75;;
59089;SDS011;44878;50.102;18.982;2023-04-26T02:00:27;15.23;;;7.83;;
59089;SDS011;44878;50.102;18.982;2023-04-26T02:02:53;14.70;;;7.30;;
59089;SDS011;44878;50.102;18.982;2023-04-26T02:05:20;13.73;;;6.40;;
59089;SDS011;44878;50.102;18.982;2023-04-26T02:07:45;17.03;;;8.10;;
59089;SDS011;44878;50.102;18.982;2023-04-26T02:10:11;16.43;;;7.80;;
59089;SDS011;44878;50.102;18.982;2023-04-26T02:12:37;15.03;;;8.00;;
59089;SDS011;44878;50.102;18.982;2023-04-26T02:15:04;16.83;;;8.00;;
59089;SDS011;44878;50.102;18.982;2023-04-26T02:17:30;14.37;;;8.30;;
59089;SDS011;44878;50.102;18.982;2023-04-26T02:19:56;14.07;;;8.03;;
59089;SDS011;44878;50.102;18.982;2023-04-26T02:22:22;14.23;;;8.47;;
59089;SDS011;44878;50.102;18.982;2023-04-26T02:24:50;13.93;;;8.25;;
59089;SDS011;44878;50.102;18.982;2023-04-26T02:27:16;17.77;;;8.93;;
59089;SDS011;44878;50.102;18.982;2023-04-26T02:29:42;15.40;;;8.27;;
59089;SDS011;44878;50.102;18.982;2023-04-26T02:32:08;15.27;;;8.77;;
59089;SDS011;44878;50.102;18.982;2023-04-26T02:34:34;17.67;;;9.00;;
59089;SDS011;44878;50.102;18.982;2023-04-26T02:37:00;16.17;;;9.57;;
59089;SDS011;44878;50.102;18.982;2023-04-26T02:39:27;12.87;;;8.03;;
59089;SDS011;44878;50.102;18.982;2023-04-26T02:41:52;13.53;;;7.90;;
59089;SDS011;44878;50.102;18.982;2023-04-26T02:44:18;16.30;;;8.33;;
59089;SDS011;44878;50.102;18.982;2023-04-26T02:46:44;17.23;;;8.87;;
59089;SDS011;44878;50.102;18.982;2023-04-26T02:49:10;17.43;;;8.73;;
59089;SDS011;44878;50.102;18.982;2023-04-26T02:51:35;19.23;;;9.70;;
59089;SDS011;44878;50.102;18.982;2023-04-26T02:54:01;14.07;;;8.60;;
59089;SDS011;44878;50.102;18.982;2023-04-26T02:56:27;15.80;;;8.70;;
59089;SDS011;44878;50.102;18.982;2023-04-26T02:58:53;16.30;;;9.40;;
59089;SDS011;44878;50.102;18.982;2023-04-26T03:01:19;17.67;;;8.40;;
59089;SDS011;44878;50.102;18.982;2023-04-26T03:03:45;16.97;;;9.63;;
59089;SDS011;44878;50.102;18.982;2023-04-26T03:06:10;15.43;;;8.97;;
59089;SDS011;44878;50.102;18.982;2023-04-26T03:08:36;16.43;;;10.00;;
59089;SDS011;44878;50.102;18.982;2023-04-26T03:11:02;16.50;;;9.50;;
59089;SDS011;44878;50.102;18.982;2023-04-26T03:13:28;17.10;;;9.60;;
59089;SDS011;44878;50.102;18.982;2023-04-26T03:15:53;18.67;;;10.70;;
59089;SDS011;44878;50.102;18.982;2023-04-26T03:18:19;18.23;;;11.30;;
59089;SDS011;44878;50.102;18.982;2023-04-26T03:20:45;17.73;;;10.53;;
59089;SDS011;44878;50.102;18.982;2023-04-26T03:23:11;15.90;;;9.60;;
59089;SDS011;44878;50.102;18.982;2023-04-26T03:25:37;16.43;;;9.90;;
59089;SDS011;44878;50.102;18.982;2023-04-26T03:28:03;17.53;;;10.00;;
59089;SDS011;44878;50.102;18.982;2023-04-26T03:30:29;22.27;;;10.57;;
59089;SDS011;44878;50.102;18.982;2023-04-26T03:32:55;19.23;;;11.17;;
59089;SDS011;44878;50.102;18.982;2023-04-26T03:35:21;20.83;;;11.10;;
59089;SDS011;44878;50.102;18.982;2023-04-26T03:37:48;15.67;;;10.70;;
59089;SDS011;44878;50.102;18.982;2023-04-26T03:40:13;17.93;;;10.83;;
59089;SDS011;44878;50.102;18.982;2023-04-26T03:42:39;17.13;;;10.50;;
59089;SDS011;44878;50.102;18.982;2023-04-26T03:45:05;19.37;;;12.37;;
59089;SDS011;44878;50.102;18.982;2023-04-26T03:47:32;20.10;;;12.47;;
59089;SDS011;44878;50.102;18.982;2023-04-26T03:49:58;17.87;;;13.17;;
59089;SDS011;44878;50.102;18.982;2023-04-26T03:52:24;20.93;;;13.00;;
59089;SDS011;44878;50.102;18.982;2023-04-26T03:54:49;20.70;;;13.13;;
59089;SDS011;44878;50.102;18.982;2023-04-26T03:57:15;22.27;;;13.60;;
59089;SDS011;44878;50.102;18.982;2023-04-26T03:59:41;21.77;;;14.20;;
59089;SDS011;44878;50.102;18.982;2023-04-26T04:02:07;20.90;;;14.07;;
59089;SDS011;44878;50.102;18.982;2023-04-26T04:04:33;18.80;;;13.40;;
59089;SDS011;44878;50.102;18.982;2023-04-26T04:06:59;19.97;;;12.57;;
59089;SDS011;44878;50.102;18.982;2023-04-26T04:09:25;17.27;;;10.90;;
59089;SDS011;44878;50.102;18.982;2023-04-26T04:11:51;19.13;;;11.50;;
59089;SDS011;44878;50.102;18.982;2023-04-26T04:14:16;21.53;;;12.47;;
59089;SDS011;44878;50.102;18.982;2023-04-26T04:16:42;21.87;;;12.17;;
59089;SDS011;44878;50.102;18.982;2023-04-26T04:19:08;16.80;;;11.77;;
59089;SDS011;44878;50.102;18.982;2023-04-26T04:21:34;18.93;;;11.40;;
59089;SDS011;44878;50.102;18.982;2023-04-26T04:24:00;17.97;;;11.23;;
59089;SDS011;44878;50.102;18.982;2023-04-26T04:26:26;22.00;;;12.10;;
59089;SDS011;44878;50.102;18.982;2023-04-26T04:28:52;18.70;;;11.50;;
59089;SDS011;44878;50.102;18.982;2023-04-26T04:31:20;17.90;;;11.23;;
59089;SDS011;44878;50.102;18.982;2023-04-26T04:33:46;19.37;;;11.73;;
59089;SDS011;44878;50.102;18.982;2023-04-26T04:36:12;17.20;;;10.03;;
59089;SDS011;44878;50.102;18.982;2023-04-26T04:38:37;19.17;;;11.20;;
59089;SDS011;44878;50.102;18.982;2023-04-26T04:41:04;16.47;;;10.57;;
59089;SDS011;44878;50.102;18.982;2023-04-26T04:43:30;15.15;;;11.48;;
59089;SDS011;44878;50.102;18.982;2023-04-26T04:45:56;17.23;;;11.05;;
59089;SDS011;44878;50.102;18.982;2023-04-26T04:48:22;14.83;;;10.00;;
59089;SDS011;44878;50.102;18.982;2023-04-26T04:50:48;15.10;;;9.65;;
59089;SDS011;44878;50.102;18.982;2023-04-26T04:53:15;23.55;;;17.02;;
59089;SDS011;44878;50.102;18.982;2023-04-26T04:55:42;16.02;;;9.68;;
59089;SDS011;44878;50.102;18.982;2023-04-26T04:58:10;16.10;;;9.45;;
59089;SDS011;44878;50.102;18.982;2023-04-26T05:00:37;14.63;;;9.80;;
59089;SDS011;44878;50.102;18.982;2023-04-26T05:03:06;15.40;;;8.85;;
59089;SDS011;44878;50.102;18.982;2023-04-26T05:05:34;14.30;;;8.80;;
59089;SDS011;44878;50.102;18.982;2023-04-26T05:08:00;16.15;;;7.80;;
59089;SDS011;44878;50.102;18.982;2023-04-26T05:10:26;11.82;;;7.40;;
59089;SDS011;44878;50.102;18.982;2023-04-26T05:12:51;14.27;;;7.88;;
59089;SDS011;44878;50.102;18.982;2023-04-26T05:15:17;14.05;;;7.22;;
59089;SDS011;44878;50.102;18.982;2023-04-26T05:17:43;11.82;;;6.97;;
59089;SDS011;44878;50.102;18.982;2023-04-26T05:20:09;13.00;;;7.30;;
59089;SDS011;44878;50.102;18.982;2023-04-26T05:22:35;12.02;;;6.97;;
59089;SDS011;44878;50.102;18.982;2023-04-26T05:25:01;11.50;;;6.10;;
59089;SDS011;44878;50.102;18.982;2023-04-26T05:27:28;12.98;;;6.75;;
59089;SDS011;44878;50.102;18.982;2023-04-26T05:29:54;10.15;;;6.25;;
59089;SDS011;44878;50.102;18.982;2023-04-26T05:32:20;11.40;;;5.78;;
59089;SDS011;44878;50.102;18.982;2023-04-26T05:34:46;10.98;;;5.18;;
59089;SDS011;44878;50.102;18.982;2023-04-26T05:37:12;10.23;;;5.50;;
59089;SDS011;44878;50.102;18.982;2023-04-26T05:39:38;14.27;;;6.35;;
59089;SDS011;44878;50.102;18.982;2023-04-26T05:42:03;11.02;;;5.25;;
59089;SDS011;44878;50.102;18.982;2023-04-26T05:44:31;9.60;;;5.28;;
59089;SDS011;44878;50.102;18.982;2023-04-26T05:46:57;10.57;;;5.05;;
59089;SDS011;44878;50.102;18.982;2023-04-26T05:49:23;15.65;;;9.25;;
59089;SDS011;44878;50.102;18.982;2023-04-26T05:51:48;15.48;;;7.20;;
59089;SDS011;44878;50.102;18.982;2023-04-26T05:54:14;12.57;;;5.22;;
59089;SDS011;44878;50.102;18.982;2023-04-26T05:56:40;8.50;;;5.03;;
59089;SDS011;44878;50.102;18.982;2023-04-26T05:59:07;10.02;;;5.13;;
59089;SDS011;44878;50.102;18.982;2023-04-26T06:01:33;8.73;;;4.63;;
59089;SDS011;44878;50.102;18.982;2023-04-26T06:03:59;9.47;;;4.80;;
59089;SDS011;44878;50.102;18.982;2023-04-26T06:06:25;8.75;;;5.10;;
59089;SDS011;44878;50.102;18.982;2023-04-26T06:08:53;10.30;;;4.90;;
59089;SDS011;44878;50.102;18.982;2023-04-26T06:11:18;7.72;;;4.28;;
59089;SDS011;44878;50.102;18.982;2023-04-26T06:13:44;9.88;;;4.53;;
59089;SDS011;44878;50.102;18.982;2023-04-26T06:16:10;9.05;;;4.40;;
59089;SDS011;44878;50.102;18.982;2023-04-26T06:18:36;10.35;;;4.38;;
59089;SDS011;44878;50.102;18.982;2023-04-26T06:21:02;11.00;;;4.97;;
59089;SDS011;44878;50.102;18.982;2023-04-26T06:23:28;17.77;;;11.65;;
59089;SDS011;44878;50.102;18.982;2023-04-26T06:25:53;9.77;;;4.50;;
59089;SDS011;44878;50.102;18.982;2023-04-26T06:28:19;7.88;;;4.03;;
59089;SDS011;44878;50.102;18.982;2023-04-26T06:30:45;8.77;;;4.22;;
59089;SDS011;44878;50.102;18.982;2023-04-26T06:33:11;9.70;;;4.20;;
59089;SDS011;44878;50.102;18.982;2023-04-26T06:35:40;10.77;;;3.92;;
59089;SDS011;44878;50.102;18.982;2023-04-26T06:38:06;7.88;;;3.92;;
59089;SDS011;44878;50.102;18.982;2023-04-26T06:40:32;8.20;;;3.42;;
59089;SDS011;44878;50.102;18.982;2023-04-26T06:42:58;7.47;;;2.97;;
59089;SDS011;44878;50.102;18.982;2023-04-26T06:45:24;7.47;;;3.28;;
59089;SDS011;44878;50.102;18.982;2023-04-26T06:47:50;10.90;;;3.80;;
59089;SDS011;44878;50.102;18.982;2023-04-26T06:50:17;7.68;;;3.60;;
59089;SDS011;44878;50.102;18.982;2023-04-26T06:52:46;14.48;;;3.85;;
59089;SDS011;44878;50.102;18.982;2023-04-26T06:55:11;10.25;;;3.40;;
59089;SDS011;44878;50.102;18.982;2023-04-26T06:57:37;6.70;;;3.40;;
59089;SDS011;44878;50.102;18.982;2023-04-26T07:00:03;7.75;;;3.22;;
59089;SDS011;44878;50.102;18.982;2023-04-26T07:02:30;9.02;;;4.43;;
59089;SDS011;44878;50.102;18.982;2023-04-26T07:04:56;9.27;;;3.60;;
59089;SDS011;44878;50.102;18.982;2023-04-26T07:07:22;8.90;;;3.77;;
59089;SDS011;44878;50.102;18.982;2023-04-26T07:09:48;9.00;;;4.03;;
59089;SDS011;44878;50.102;18.982;2023-04-26T07:12:14;7.40;;;3.47;;
59089;SDS011;44878;50.102;18.982;2023-04-26T07:14:40;6.97;;;3.63;;
59089;SDS011;44878;50.102;18.982;2023-04-26T07:17:10;9.25;;;3.33;;
59089;SDS011;44878;50.102;18.982;2023-04-26T07:19:36;8.85;;;3.83;;
59089;SDS011;44878;50.102;18.982;2023-04-26T07:22:02;13.43;;;3.97;;
59089;SDS011;44878;50.102;18.982;2023-04-26T07:24:29;10.82;;;3.58;;
59089;SDS011;44878;50.102;18.982;2023-04-26T07:26:55;8.32;;;3.10;;
59089;SDS011;44878;50.102;18.982;2023-04-26T07:29:21;7.70;;;3.22;;
59089;SDS011;44878;50.102;18.982;2023-04-26T07:31:47;8.43;;;3.40;;
59089;SDS011;44878;50.102;18.982;2023-04-26T07:34:13;9.68;;;3.17;;
59089;SDS011;44878;50.102;18.982;2023-04-26T07:36:39;8.77;;;3.33;;
59089;SDS011;44878;50.102;18.982;2023-04-26T07:39:08;10.85;;;3.42;;
59089;SDS011;44878;50.102;18.982;2023-04-26T07:41:35;11.23;;;3.47;;
59089;SDS011;44878;50.102;18.982;2023-04-26T07:44:01;7.90;;;4.07;;
59089;SDS011;44878;50.102;18.982;2023-04-26T07:46:28;8.90;;;3.40;;
59089;SDS011;44878;50.102;18.982;2023-04-26T07:48:53;14.88;;;9.45;;
59089;SDS011;44878;50.102;18.982;2023-04-26T07:51:19;11.32;;;3.58;;
59089;SDS011;44878;50.102;18.982;2023-04-26T07:53:45;9.57;;;3.05;;
59089;SDS011;44878;50.102;18.982;2023-04-26T07:56:11;8.00;;;3.22;;
59089;SDS011;44878;50.102;18.982;2023-04-26T07:58:37;10.05;;;3.58;;
59089;SDS011;44878;50.102;18.982;2023-04-26T08:01:06;8.43;;;2.92;;
59089;SDS011;44878;50.102;18.982;2023-04-26T08:03:36;7.35;;;4.05;;
59089;SDS011;44878;50.102;18.982;2023-04-26T08:06:02;8.10;;;3.08;;
59089;SDS011;44878;50.102;18.982;2023-04-26T08:08:28;6.88;;;2.97;;
59089;SDS011;44878;50.102;18.982;2023-04-26T08:10:54;7.68;;;2.95;;
59089;SDS011;44878;50.102;18.982;2023-04-26T08:13:20;6.45;;;2.40;;
59089;SDS011;44878;50.102;18.982;2023-04-26T08:15:46;6.38;;;2.22;;
59089;SDS011;44878;50.102;18.982;2023-04-26T08:18:12;9.48;;;2.92;;
59089;SDS011;44878;50.102;18.982;2023-04-26T08:20:38;8.82;;;2.83;;
59089;SDS011;44878;50.102;18.982;2023-04-26T08:23:07;7.50;;;2.97;;
59089;SDS011;44878;50.102;18.982;2023-04-26T08:25:33;9.10;;;3.53;;
59089;SDS011;44878;50.102;18.982;2023-04-26T08:27:59;8.25;;;3.05;;
59089;SDS011;44878;50.102;18.982;2023-04-26T08:30:25;10.77;;;3.70;;
59089;SDS011;44878;50.102;18.982;2023-04-26T08:32:51;9.07;;;3.08;;
59089;SDS011;44878;50.102;18.982;2023-04-26T08:35:17;11.63;;;3.22;;
59089;SDS011;44878;50.102;18.982;2023-04-26T08:37:43;8.60;;;2.90;;
59089;SDS011;44878;50.102;18.982;2023-04-26T08:40:09;7.80;;;2.60;;
59089;SDS011;44878;50.102;18.982;2023-04-26T08:42:38;9.13;;;2.60;;
59089;SDS011;44878;50.102;18.982;2023-04-26T08:45:05;7.25;;;2.75;;
59089;SDS011;44878;50.102;18.982;2023-04-26T08:47:51;9.15;;;2.80;;
59089;SDS011;44878;50.102;18.982;2023-04-26T08:50:18;10.35;;;2.50;;
59089;SDS011;44878;50.102;18.982;2023-04-26T08:52:44;6.35;;;2.80;;
59089;SDS011;44878;50.102;18.982;2023-04-26T08:57:38;7.80;;;3.47;;
59089;SDS011;44878;50.102;18.982;2023-04-26T09:00:08;6.00;;;3.08;;
59089;SDS011;44878;50.102;18.982;2023-04-26T09:02:34;10.35;;;3.60;;
59089;SDS011;44878;50.102;18.982;2023-04-26T09:05:01;7.10;;;3.15;;
59089;SDS011;44878;50.102;18.982;2023-04-26T09:07:32;7.97;;;3.83;;
59089;SDS011;44878;50.102;18.982;2023-04-26T09:10:02;8.38;;;3.53;;
59089;SDS011;44878;50.102;18.982;2023-04-26T09:12:29;7.57;;;2.78;;
59089;SDS011;44878;50.102;18.982;2023-04-26T09:14:55;6.55;;;2.55;;
59089;SDS011;44878;50.102;18.982;2023-04-26T09:19:49;8.45;;;2.75;;
59089;SDS011;44878;50.102;18.982;2023-04-26T09:22:26;7.25;;;2.50;;
59089;SDS011;44878;50.102;18.982;2023-04-26T09:24:52;6.15;;;2.53;;
59089;SDS011;44878;50.102;18.982;2023-04-26T09:27:18;7.88;;;3.60;;
59089;SDS011;44878;50.102;18.982;2023-04-26T09:32:47;9.68;;;4.18;;
59089;SDS011;44878;50.102;18.982;2023-04-26T09:35:27;7.65;;;3.22;;
59089;SDS011;44878;50.102;18.982;2023-04-26T09:37:56;7.40;;;3.28;;
59089;SDS011;44878;50.102;18.982;2023-04-26T09:40:24;9.93;;;3.47;;
59089;SDS011;44878;50.102;18.982;2023-04-26T09:43:03;7.28;;;2.97;;
59089;SDS011;44878;50.102;18.982;2023-04-26T09:45:30;9.60;;;3.20;;
59089;SDS011;44878;50.102;18.982;2023-04-26T09:48:11;6.80;;;2.60;;
59089;SDS011;44878;50.102;18.982;2023-04-26T09:50:38;5.72;;;3.40;;
59089;SDS011;44878;50.102;18.982;2023-04-26T09:53:04;8.05;;;4.82;;
59089;SDS011;44878;50.102;18.982;2023-04-26T09:55:30;9.18;;;4.70;;
59089;SDS011;44878;50.102;18.982;2023-04-26T09:57:56;8.32;;;3.53;;
59089;SDS011;44878;50.102;18.982;2023-04-26T10:00:25;8.00;;;3.25;;
59089;SDS011;44878;50.102;18.982;2023-04-26T10:02:52;8.43;;;3.35;;
59089;SDS011;44878;50.102;18.982;2023-04-26T10:05:19;9.00;;;3.30;;
59089;SDS011;44878;50.102;18.982;2023-04-26T10:07:45;8.23;;;3.13;;
59089;SDS011;44878;50.102;18.982;2023-04-26T10:10:11;7.38;;;3.17;;
59089;SDS011;44878;50.102;18.982;2023-04-26T10:12:37;8.18;;;2.92;;
59089;SDS011;44878;50.102;18.982;2023-04-26T10:15:05;6.85;;;3.03;;
59089;SDS011;44878;50.102;18.982;2023-04-26T10:17:39;5.40;;;2.65;;
59089;SDS011;44878;50.102;18.982;2023-04-26T10:20:07;5.20;;;2.78;;
59089;SDS011;44878;50.102;18.982;2023-04-26T10:22:36;5.57;;;2.78;;
59089;SDS011;44878;50.102;18.982;2023-04-26T10:25:04;7.82;;;2.70;;
59089;SDS011;44878;50.102;18.982;2023-04-26T10:30:09;8.05;;;3.17;;
59089;SDS011;44878;50.102;18.982;2023-04-26T10:35:21;7.20;;;2.78;;
59089;SDS011;44878;50.102;18.982;2023-04-26T10:40:23;7.22;;;2.10;;
59089;SDS011;44878;50.102;18.982;2023-04-26T10:42:49;6.30;;;2.20;;
59089;SDS011;44878;50.102;18.982;2023-04-26T10:45:25;8.50;;;2.80;;
59089;SDS011;44878;50.102;18.982;2023-04-26T10:48:12;5.97;;;1.75;;
59089;SDS011;44878;50.102;18.982;2023-04-26T10:53:22;11.85;;;2.08;;
59089;SDS011;44878;50.102;18.982;2023-04-26T10:55:48;8.02;;;2.30;;
59089;SDS011;44878;50.102;18.982;2023-04-26T10:58:30;7.82;;;1.80;;
59089;SDS011;44878;50.102;18.982;2023-04-26T11:01:05;6.20;;;2.00;;
59089;SDS011;44878;50.102;18.982;2023-04-26T11:03:35;7.03;;;2.50;;
59089;SDS011;44878;50.102;18.982;2023-04-26T11:06:08;5.78;;;1.63;;
59089;SDS011;44878;50.102;18.982;2023-04-26T11:08:34;5.20;;;1.52;;
59089;SDS011;44878;50.102;18.982;2023-04-26T11:13:30;10.85;;;9.38;;
59089;SDS011;44878;50.102;18.982;2023-04-26T11:16:00;5.93;;;2.63;;
59089;SDS011;44878;50.102;18.982;2023-04-26T11:18:29;4.32;;;1.60;;
59089;SDS011;44878;50.102;18.982;2023-04-26T11:20:55;4.38;;;1.45;;
59089;SDS011;44878;50.102;18.982;2023-04-26T11:23:22;4.45;;;1.63;;
59089;SDS011;44878;50.102;18.982;2023-04-26T11:25:48;6.13;;;2.28;;
59089;SDS011;44878;50.102;18.982;2023-04-26T11:28:14;5.95;;;2.22;;
59089;SDS011;44878;50.102;18.982;2023-04-26T11:30:41;6.75;;;1.98;;
59089;SDS011;44878;50.102;18.982;2023-04-26T11:35:34;6.72;;;2.05;;
59089;SDS011;44878;50.102;18.982;2023-04-26T11:38:02;5.22;;;1.88;;
59089;SDS011;44878;50.102;18.982;2023-04-26T11:40:31;6.28;;;1.90;;
59089;SDS011;44878;50.102;18.982;2023-04-26T11:42:58;7.60;;;2.03;;
59089;SDS011;44878;50.102;18.982;2023-04-26T11:45:24;6.63;;;2.00;;
59089;SDS011;44878;50.102;18.982;2023-04-26T11:47:50;5.55;;;1.80;;
59089;SDS011;44878;50.102;18.982;2023-04-26T11:50:16;9.82;;;2.00;;
59089;SDS011;44878;50.102;18.982;2023-04-26T11:52:41;4.72;;;1.70;;
59089;SDS011;44878;50.102;18.982;2023-04-26T11:55:08;5.20;;;1.75;;
59089;SDS011;44878;50.102;18.982;2023-04-26T11:57:37;10.25;;;2.53;;
59089;SDS011;44878;50.102;18.982;2023-04-26T12:00:13;7.78;;;2.20;;
59089;SDS011;44878;50.102;18.982;2023-04-26T12:02:48;8.52;;;2.38;;
59089;SDS011;44878;50.102;18.982;2023-04-26T12:05:25;5.47;;;2.08;;
59089;SDS011;44878;50.102;18.982;2023-04-26T12:07:51;6.60;;;2.63;;
59089;SDS011;44878;50.102;18.982;2023-04-26T12:10:18;3.83;;;1.60;;
59089;SDS011;44878;50.102;18.982;2023-04-26T12:12:48;8.77;;;2.78;;
59089;SDS011;44878;50.102;18.982;2023-04-26T12:15:16;5.03;;;1.70;;
59089;SDS011;44878;50.102;18.982;2023-04-26T12:20:38;5.68;;;1.77;;
59089;SDS011;44878;50.102;18.982;2023-04-26T12:23:06;5.30;;;2.28;;
59089;SDS011;44878;50.102;18.982;2023-04-26T12:25:35;9.90;;;2.03;;
59089;SDS011;44878;50.102;18.982;2023-04-26T12:28:05;12.15;;;2.30;;
59089;SDS011;44878;50.102;18.982;2023-04-26T12:30:36;12.32;;;2.47;;
59089;SDS011;44878;50.102;18.982;2023-04-26T12:33:02;5.60;;;2.20;;
59089;SDS011;44878;50.102;18.982;2023-04-26T12:35:29;6.75;;;2.47;;
59089;SDS011;44878;50.102;18.982;2023-04-26T12:37:54;7.97;;;2.00;;
59089;SDS011;44878;50.102;18.982;2023-04-26T12:40:22;5.43;;;2.00;;
59089;SDS011;44878;50.102;18.982;2023-04-26T12:42:48;3.40;;;1.40;;
59089;SDS011;44878;50.102;18.982;2023-04-26T12:45:15;4.78;;;1.52;;
59089;SDS011;44878;50.102;18.982;2023-04-26T12:47:43;5.38;;;1.63;;
59089;SDS011;44878;50.102;18.982;2023-04-26T12:50:09;6.05;;;1.80;;
59089;SDS011;44878;50.102;18.982;2023-04-26T12:52:37;5.55;;;1.80;;
59089;SDS011;44878;50.102;18.982;2023-04-26T12:55:04;4.93;;;1.97;;
59089;SDS011;44878;50.102;18.982;2023-04-26T12:57:30;7.40;;;2.33;;
59089;SDS011;44878;50.102;18.982;2023-04-26T12:59:56;6.38;;;2.25;;
59089;SDS011;44878;50.102;18.982;2023-04-26T13:02:22;6.13;;;2.33;;
59089;SDS011;44878;50.102;18.982;2023-04-26T13:04:48;7.38;;;2.20;;
59089;SDS011;44878;50.102;18.982;2023-04-26T13:07:14;7.07;;;1.90;;
59089;SDS011;44878;50.102;18.982;2023-04-26T13:09:41;6.07;;;1.92;;
59089;SDS011;44878;50.102;18.982;2023-04-26T13:12:06;7.45;;;1.92;;
59089;SDS011;44878;50.102;18.982;2023-04-26T13:14:32;6.07;;;2.40;;
59089;SDS011;44878;50.102;18.982;2023-04-26T13:16:58;5.80;;;1.77;;
59089;SDS011;44878;50.102;18.982;2023-04-26T13:19:24;9.18;;;2.10;;
59089;SDS011;44878;50.102;18.982;2023-04-26T13:21:50;5.10;;;2.10;;
59089;SDS011;44878;50.102;18.982;2023-04-26T13:24:18;5.35;;;2.00;;
59089;SDS011;44878;50.102;18.982;2023-04-26T13:26:43;8.10;;;2.47;;
59089;SDS011;44878;50.102;18.982;2023-04-26T13:29:09;4.90;;;2.15;;
59089;SDS011;44878;50.102;18.982;2023-04-26T13:31:35;3.72;;;1.75;;
59089;SDS011;44878;50.102;18.982;2023-04-26T13:34:01;6.25;;;3.03;;
59089;SDS011;44878;50.102;18.982;2023-04-26T13:36:27;5.93;;;2.22;;
59089;SDS011;44878;50.102;18.982;2023-04-26T13:38:54;4.53;;;1.73;;
59089;SDS011;44878;50.102;18.982;2023-04-26T13:41:20;3.70;;;1.50;;
59089;SDS011;44878;50.102;18.982;2023-04-26T13:43:47;9.80;;;1.92;;
59089;SDS011;44878;50.102;18.982;2023-04-26T13:46:12;4.97;;;1.52;;
59089;SDS011;44878;50.102;18.982;2023-04-26T13:48:38;3.67;;;1.88;;
59089;SDS011;44878;50.102;18.982;2023-04-26T13:51:04;7.47;;;2.30;;
59089;SDS011;44878;50.102;18.982;2023-04-26T13:53:31;5.00;;;2.10;;
59089;SDS011;44878;50.102;18.982;2023-04-26T13:55:56;5.18;;;2.08;;
59089;SDS011;44878;50.102;18.982;2023-04-26T13:58:22;4.95;;;1.80;;
59089;SDS011;44878;50.102;18.982;2023-04-26T14:00:48;5.20;;;1.90;;
59089;SDS011;44878;50.102;18.982;2023-04-26T14:03:15;4.40;;;1.45;;
59089;SDS011;44878;50.102;18.982;2023-04-26T14:05:41;4.30;;;2.08;;
59089;SDS011;44878;50.102;18.982;2023-04-26T14:08:07;5.13;;;1.95;;
59089;SDS011;44878;50.102;18.982;2023-04-26T14:10:32;4.05;;;1.83;;
59089;SDS011;44878;50.102;18.982;2023-04-26T14:12:59;5.57;;;2.20;;
59089;SDS011;44878;50.102;18.982;2023-04-26T14:15:24;5.82;;;2.30;;
59089;SDS011;44878;50.102;18.982;2023-04-26T14:17:50;5.40;;;2.08;;
59089;SDS011;44878;50.102;18.982;2023-04-26T14:20:16;6.38;;;2.10;;
59089;SDS011;44878;50.102;18.982;2023-04-26T14:22:42;6.35;;;2.00;;
59089;SDS011;44878;50.102;18.982;2023-04-26T14:25:08;5.95;;;1.90;;
59089;SDS011;44878;50.102;18.982;2023-04-26T14:27:34;6.95;;;2.47;;
59089;SDS011;44878;50.102;18.982;2023-04-26T14:30:00;4.20;;;1.88;;
59089;SDS011;44878;50.102;18.982;2023-04-26T14:32:26;6.20;;;2.30;;
59089;SDS011;44878;50.102;18.982;2023-04-26T14:34:51;4.82;;;2.20;;
59089;SDS011;44878;50.102;18.982;2023-04-26T14:37:18;6.15;;;2.03;;
59089;SDS011;44878;50.102;18.982;2023-04-26T14:39:47;6.32;;;1.50;;
59089;SDS011;44878;50.102;18.982;2023-04-26T14:42:13;3.20;;;1.25;;
59089;SDS011;44878;50.102;18.982;2023-04-26T14:44:39;26.45;;;19.75;;
59089;SDS011;44878;50.102;18.982;2023-04-26T14:47:05;4.25;;;1.80;;
59089;SDS011;44878;50.102;18.982;2023-04-26T14:49:31;6.72;;;2.08;;
59089;SDS011;44878;50.102;18.982;2023-04-26T14:51:57;6.88;;;2.25;;